VOE7RA LICJ-LFBT
Flight info
| Callsign | VOE7RA |
|---|---|
| Flight time | 1h 45m |
| Altitude | 34000 |
| Route | ABKON DCT OKIVA P872 AJO Z154 LIPSU DCT DIVKO UM731 FJR DCT MALOU/N0435F350 DCT LASBO |
| Aircraft | A320/M-SDE3FGHIRWY/LB1 |
Departure
| Time | 2026-04-29 10:20 |
|---|---|
| Airport | Falcone–Borsellino Airport (LICJ) |
Arrival
| Time | 2026-04-29 12:06 |
|---|---|
| Airport | Tarbes-Lourdes-Pyrénées Airport (LFBT) |
| Time | Latitude | Longitude | Altitude | Speed | Heading |
|---|---|---|---|---|---|
| 2026-04-29 10:00 | 38.18498 | 13.10465 | 61 ft | 0 kts | 335° |
| 2026-04-29 10:12 | 38.18494 | 13.10467 | 62 ft | 2 kts | 335° |
| 2026-04-29 10:12 | 38.18480 | 13.10475 | 62 ft | 2 kts | 335° |
| 2026-04-29 10:12 | 38.18467 | 13.10483 | 63 ft | 2 kts | 335° |
| 2026-04-29 10:13 | 38.18453 | 13.10491 | 64 ft | 2 kts | 335° |
| 2026-04-29 10:13 | 38.18439 | 13.10498 | 65 ft | 2 kts | 335° |
| 2026-04-29 10:13 | 38.18425 | 13.10506 | 66 ft | 2 kts | 343° |
| 2026-04-29 10:13 | 38.18411 | 13.10507 | 66 ft | 2 kts | 11° |
| 2026-04-29 10:14 | 38.18401 | 13.10503 | 67 ft | 0 kts | 28° |
| 2026-04-29 10:14 | 38.18395 | 13.10498 | 67 ft | 0 kts | 32° |
| 2026-04-29 10:16 | 38.18401 | 13.10504 | 66 ft | 4 kts | 32° |
| 2026-04-29 10:16 | 38.18457 | 13.10576 | 66 ft | 10 kts | 63° |
| 2026-04-29 10:16 | 38.18491 | 13.10670 | 66 ft | 12 kts | 65° |
| 2026-04-29 10:17 | 38.18499 | 13.10774 | 68 ft | 11 kts | 107° |
| 2026-04-29 10:17 | 38.18474 | 13.10862 | 71 ft | 9 kts | 109° |
| 2026-04-29 10:17 | 38.18442 | 13.10935 | 74 ft | 10 kts | 140° |
| 2026-04-29 10:17 | 38.18438 | 13.11029 | 74 ft | 14 kts | 64° |
| 2026-04-29 10:18 | 38.18483 | 13.11155 | 73 ft | 15 kts | 68° |
| 2026-04-29 10:18 | 38.18528 | 13.11288 | 71 ft | 17 kts | 66° |
| 2026-04-29 10:18 | 38.18579 | 13.11434 | 69 ft | 19 kts | 65° |
| 2026-04-29 10:18 | 38.18622 | 13.11575 | 66 ft | 13 kts | 97° |
| 2026-04-29 10:19 | 38.18608 | 13.11704 | 65 ft | 15 kts | 97° |
| 2026-04-29 10:19 | 38.18594 | 13.11850 | 62 ft | 16 kts | 104° |
| 2026-04-29 10:19 | 38.18539 | 13.11908 | 63 ft | 6 kts | 189° |
| 2026-04-29 10:19 | 38.18511 | 13.11863 | 65 ft | 12 kts | 245° |
| 2026-04-29 10:20 | 38.18370 | 13.11446 | 83 ft | 89 kts | 247° |
| 2026-04-29 10:20 | 38.18032 | 13.10441 | 86 ft | 154 kts | 245° |
| 2026-04-29 10:20 | 38.17587 | 13.09117 | 542 ft | 165 kts | 253° |
| 2026-04-29 10:20 | 38.17372 | 13.07716 | 1239 ft | 165 kts | 261° |
| 2026-04-29 10:21 | 38.17209 | 13.06284 | 1931 ft | 165 kts | 260° |
| 2026-04-29 10:21 | 38.17020 | 13.04824 | 2283 ft | 178 kts | 258° |
| 2026-04-29 10:21 | 38.16777 | 13.03200 | 2609 ft | 195 kts | 257° |
| 2026-04-29 10:21 | 38.16654 | 13.01418 | 2972 ft | 213 kts | 278° |
| 2026-04-29 10:22 | 38.17261 | 12.99695 | 3527 ft | 220 kts | 302° |
| 2026-04-29 10:22 | 38.18225 | 12.98158 | 4031 ft | 233 kts | 313° |
| 2026-04-29 10:22 | 38.19435 | 12.96654 | 4456 ft | 251 kts | 316° |
| 2026-04-29 10:22 | 38.20759 | 12.95083 | 4911 ft | 269 kts | 316° |
| 2026-04-29 10:23 | 38.22142 | 12.93427 | 5553 ft | 278 kts | 315° |
| 2026-04-29 10:23 | 38.23532 | 12.91741 | 6380 ft | 280 kts | 315° |
| 2026-04-29 10:23 | 38.24921 | 12.90039 | 7210 ft | 281 kts | 314° |
| 2026-04-29 10:23 | 38.26321 | 12.88312 | 8024 ft | 283 kts | 314° |
| 2026-04-29 10:24 | 38.27731 | 12.86562 | 8828 ft | 285 kts | 313° |
| 2026-04-29 10:24 | 38.29139 | 12.84809 | 9626 ft | 287 kts | 313° |
| 2026-04-29 10:24 | 38.30574 | 12.83018 | 10405 ft | 290 kts | 313° |
| 2026-04-29 10:24 | 38.32028 | 12.81199 | 10887 ft | 303 kts | 313° |
| 2026-04-29 10:25 | 38.33555 | 12.79285 | 11432 ft | 313 kts | 313° |
| 2026-04-29 10:25 | 38.35102 | 12.77349 | 12154 ft | 316 kts | 313° |
| 2026-04-29 10:25 | 38.36679 | 12.75376 | 12893 ft | 318 kts | 313° |
| 2026-04-29 10:25 | 38.38258 | 12.73398 | 13603 ft | 320 kts | 313° |
| 2026-04-29 10:26 | 38.39844 | 12.71409 | 14273 ft | 323 kts | 313° |
| 2026-04-29 10:26 | 38.41426 | 12.69425 | 14902 ft | 326 kts | 313° |
| 2026-04-29 10:26 | 38.43052 | 12.67383 | 15538 ft | 329 kts | 313° |
| 2026-04-29 10:26 | 38.44677 | 12.65341 | 16150 ft | 332 kts | 313° |
| 2026-04-29 10:27 | 38.47995 | 12.61169 | 17319 ft | 338 kts | 313° |
| 2026-04-29 10:27 | 38.49677 | 12.59052 | 17891 ft | 341 kts | 313° |
| 2026-04-29 10:27 | 38.51345 | 12.56952 | 18453 ft | 343 kts | 313° |
| 2026-04-29 10:28 | 38.53064 | 12.54785 | 19030 ft | 346 kts | 313° |
| 2026-04-29 10:28 | 38.54772 | 12.52632 | 19599 ft | 348 kts | 313° |
| 2026-04-29 10:28 | 38.56478 | 12.50478 | 20144 ft | 349 kts | 313° |
| 2026-04-29 10:28 | 38.58207 | 12.48293 | 20685 ft | 352 kts | 313° |
| 2026-04-29 10:29 | 38.59949 | 12.46092 | 21206 ft | 354 kts | 313° |
| 2026-04-29 10:29 | 38.61696 | 12.43882 | 21717 ft | 356 kts | 313° |
| 2026-04-29 10:29 | 38.63468 | 12.41639 | 22219 ft | 358 kts | 313° |
| 2026-04-29 10:29 | 38.65230 | 12.39407 | 22720 ft | 360 kts | 313° |
| 2026-04-29 10:30 | 38.67016 | 12.37142 | 23213 ft | 362 kts | 313° |
| 2026-04-29 10:30 | 38.68811 | 12.34863 | 23690 ft | 364 kts | 313° |
| 2026-04-29 10:30 | 38.70586 | 12.32609 | 24164 ft | 366 kts | 313° |
| 2026-04-29 10:30 | 38.72411 | 12.30289 | 24609 ft | 368 kts | 313° |
| 2026-04-29 10:31 | 38.74235 | 12.27970 | 25032 ft | 371 kts | 313° |
| 2026-04-29 10:31 | 38.76066 | 12.25639 | 25439 ft | 374 kts | 313° |
| 2026-04-29 10:31 | 38.77908 | 12.23295 | 25853 ft | 376 kts | 313° |
| 2026-04-29 10:31 | 38.79739 | 12.20959 | 26258 ft | 378 kts | 313° |
| 2026-04-29 10:32 | 38.81623 | 12.18555 | 26664 ft | 380 kts | 313° |
| 2026-04-29 10:32 | 38.83488 | 12.16175 | 27057 ft | 382 kts | 313° |
| 2026-04-29 10:32 | 38.85356 | 12.13787 | 27433 ft | 384 kts | 313° |
| 2026-04-29 10:32 | 38.87245 | 12.11373 | 27813 ft | 386 kts | 313° |
| 2026-04-29 10:33 | 38.89151 | 12.08934 | 28156 ft | 388 kts | 313° |
| 2026-04-29 10:33 | 38.91082 | 12.06463 | 28494 ft | 391 kts | 313° |
| 2026-04-29 10:33 | 38.93002 | 12.04000 | 28830 ft | 393 kts | 314° |
| 2026-04-29 10:33 | 38.94949 | 12.01502 | 29170 ft | 395 kts | 313° |
| 2026-04-29 10:34 | 38.96886 | 11.99018 | 29499 ft | 397 kts | 314° |
| 2026-04-29 10:34 | 38.98843 | 11.96503 | 29828 ft | 399 kts | 314° |
| 2026-04-29 10:34 | 39.00800 | 11.93986 | 30132 ft | 401 kts | 314° |
| 2026-04-29 10:34 | 39.02775 | 11.91446 | 30400 ft | 403 kts | 314° |
| 2026-04-29 10:35 | 39.04737 | 11.88920 | 30669 ft | 405 kts | 314° |
| 2026-04-29 10:35 | 39.06736 | 11.86344 | 30915 ft | 408 kts | 313° |
| 2026-04-29 10:35 | 39.08734 | 11.83767 | 31189 ft | 409 kts | 313° |
| 2026-04-29 10:35 | 39.10747 | 11.81167 | 31450 ft | 411 kts | 314° |
| 2026-04-29 10:36 | 39.12769 | 11.78552 | 31708 ft | 413 kts | 313° |
| 2026-04-29 10:36 | 39.14789 | 11.75939 | 31960 ft | 414 kts | 313° |
| 2026-04-29 10:36 | 39.16828 | 11.73300 | 32204 ft | 416 kts | 313° |
| 2026-04-29 10:36 | 39.18861 | 11.70666 | 32464 ft | 417 kts | 313° |
| 2026-04-29 10:37 | 39.20896 | 11.68026 | 32716 ft | 418 kts | 313° |
| 2026-04-29 10:37 | 39.22961 | 11.65345 | 32929 ft | 420 kts | 313° |
| 2026-04-29 10:37 | 39.25026 | 11.62662 | 33127 ft | 422 kts | 313° |
| 2026-04-29 10:37 | 39.27071 | 11.60001 | 33312 ft | 424 kts | 313° |
| 2026-04-29 10:38 | 39.29145 | 11.57300 | 33505 ft | 426 kts | 313° |
| 2026-04-29 10:38 | 39.31224 | 11.54591 | 33691 ft | 427 kts | 313° |
| 2026-04-29 10:38 | 39.33322 | 11.51856 | 33886 ft | 428 kts | 313° |
| 2026-04-29 10:38 | 39.35429 | 11.49105 | 34012 ft | 430 kts | 313° |
| 2026-04-29 10:39 | 39.37527 | 11.46365 | 34014 ft | 430 kts | 313° |
| 2026-04-29 10:39 | 39.41723 | 11.40876 | 34017 ft | 431 kts | 314° |
| 2026-04-29 10:40 | 39.45921 | 11.35373 | 34020 ft | 431 kts | 314° |
| 2026-04-29 10:40 | 39.50106 | 11.29878 | 34019 ft | 432 kts | 313° |
| 2026-04-29 10:41 | 39.54320 | 11.24336 | 34017 ft | 431 kts | 313° |
| 2026-04-29 10:41 | 39.58540 | 11.18775 | 34017 ft | 432 kts | 313° |
| 2026-04-29 10:42 | 39.62721 | 11.13253 | 34018 ft | 431 kts | 313° |
| 2026-04-29 10:42 | 39.66932 | 11.07681 | 34023 ft | 432 kts | 313° |
| 2026-04-29 10:43 | 39.71132 | 11.02115 | 34019 ft | 433 kts | 313° |
| 2026-04-29 10:43 | 39.75319 | 10.96556 | 34020 ft | 434 kts | 313° |
| 2026-04-29 10:44 | 39.79525 | 10.90954 | 34022 ft | 434 kts | 313° |
| 2026-04-29 10:44 | 39.83742 | 10.85332 | 34020 ft | 434 kts | 314° |
| 2026-04-29 10:45 | 39.88025 | 10.79810 | 34021 ft | 434 kts | 317° |
| 2026-04-29 10:45 | 39.92562 | 10.74639 | 34021 ft | 434 kts | 318° |
| 2026-04-29 10:46 | 39.97102 | 10.69513 | 34020 ft | 435 kts | 318° |
| 2026-04-29 10:46 | 40.01663 | 10.64347 | 34019 ft | 435 kts | 318° |
| 2026-04-29 10:47 | 40.06231 | 10.59158 | 34017 ft | 435 kts | 318° |
| 2026-04-29 10:47 | 40.10783 | 10.53975 | 34017 ft | 435 kts | 318° |
| 2026-04-29 10:48 | 40.15334 | 10.48782 | 34013 ft | 436 kts | 318° |
| 2026-04-29 10:48 | 40.19886 | 10.43582 | 34013 ft | 435 kts | 318° |
| 2026-04-29 10:49 | 40.24424 | 10.38385 | 34011 ft | 435 kts | 318° |
| 2026-04-29 10:49 | 40.28949 | 10.33193 | 34009 ft | 436 kts | 317° |
| 2026-04-29 10:50 | 40.33505 | 10.27956 | 34006 ft | 436 kts | 317° |
| 2026-04-29 10:50 | 40.38029 | 10.22746 | 34004 ft | 435 kts | 317° |
| 2026-04-29 10:51 | 40.42575 | 10.17501 | 34002 ft | 436 kts | 317° |
| 2026-04-29 10:51 | 40.47122 | 10.12246 | 34000 ft | 435 kts | 317° |
| 2026-04-29 10:52 | 40.51646 | 10.07007 | 33996 ft | 436 kts | 317° |
| 2026-04-29 10:52 | 40.56196 | 10.01730 | 33995 ft | 435 kts | 317° |
| 2026-04-29 10:53 | 40.60718 | 9.96471 | 33991 ft | 435 kts | 317° |
| 2026-04-29 10:53 | 40.65237 | 9.91206 | 33988 ft | 436 kts | 317° |
| 2026-04-29 10:54 | 40.69775 | 9.85912 | 33983 ft | 436 kts | 317° |
| 2026-04-29 10:54 | 40.74307 | 9.80615 | 33983 ft | 436 kts | 317° |
| 2026-04-29 10:55 | 40.78823 | 9.75326 | 33977 ft | 436 kts | 317° |
| 2026-04-29 10:55 | 40.83357 | 9.70007 | 33979 ft | 436 kts | 317° |
| 2026-04-29 10:56 | 40.87875 | 9.64690 | 33983 ft | 437 kts | 317° |
| 2026-04-29 10:56 | 40.92391 | 9.59372 | 33975 ft | 437 kts | 317° |
| 2026-04-29 10:57 | 40.96925 | 9.54020 | 33965 ft | 437 kts | 317° |
| 2026-04-29 10:57 | 41.01443 | 9.48675 | 33959 ft | 438 kts | 317° |
| 2026-04-29 10:58 | 41.05955 | 9.43332 | 33952 ft | 437 kts | 317° |
| 2026-04-29 10:58 | 41.10507 | 9.37929 | 33949 ft | 437 kts | 317° |
| 2026-04-29 10:59 | 41.15011 | 9.32567 | 33950 ft | 438 kts | 316° |
| 2026-04-29 10:59 | 41.18860 | 9.26434 | 33941 ft | 435 kts | 300° |
| 2026-04-29 11:00 | 41.21360 | 9.19137 | 33941 ft | 434 kts | 291° |
| 2026-04-29 11:00 | 41.23531 | 9.11714 | 33931 ft | 434 kts | 290° |
| 2026-04-29 11:01 | 41.25722 | 9.04238 | 33922 ft | 434 kts | 290° |
| 2026-04-29 11:01 | 41.27918 | 8.96776 | 33928 ft | 436 kts | 291° |
| 2026-04-29 11:02 | 41.30114 | 8.89312 | 33936 ft | 436 kts | 291° |
| 2026-04-29 11:02 | 41.32314 | 8.81823 | 33937 ft | 436 kts | 290° |
| 2026-04-29 11:03 | 41.34495 | 8.74375 | 33937 ft | 435 kts | 291° |
| 2026-04-29 11:03 | 41.36684 | 8.66885 | 33940 ft | 435 kts | 291° |
| 2026-04-29 11:04 | 41.38869 | 8.59390 | 33940 ft | 436 kts | 291° |
| 2026-04-29 11:04 | 41.41053 | 8.51877 | 33940 ft | 436 kts | 290° |
| 2026-04-29 11:05 | 41.43228 | 8.44368 | 33942 ft | 437 kts | 291° |
| 2026-04-29 11:05 | 41.45416 | 8.36796 | 33947 ft | 438 kts | 291° |
| 2026-04-29 11:06 | 41.47595 | 8.29231 | 33948 ft | 437 kts | 290° |
| 2026-04-29 11:06 | 41.49746 | 8.21743 | 33950 ft | 437 kts | 290° |
| 2026-04-29 11:07 | 41.51918 | 8.14155 | 33949 ft | 438 kts | 290° |
| 2026-04-29 11:07 | 41.54069 | 8.06619 | 33952 ft | 437 kts | 290° |
| 2026-04-29 11:08 | 41.56236 | 7.99010 | 33955 ft | 438 kts | 290° |
| 2026-04-29 11:08 | 41.58378 | 7.91462 | 33955 ft | 438 kts | 290° |
| 2026-04-29 11:09 | 41.60526 | 7.83869 | 33954 ft | 439 kts | 290° |
| 2026-04-29 11:09 | 41.62670 | 7.76271 | 33956 ft | 438 kts | 290° |
| 2026-04-29 11:10 | 41.64813 | 7.68650 | 33956 ft | 438 kts | 290° |
| 2026-04-29 11:10 | 41.66939 | 7.61069 | 33957 ft | 438 kts | 290° |
| 2026-04-29 11:11 | 41.69073 | 7.53440 | 33958 ft | 438 kts | 290° |
| 2026-04-29 11:11 | 41.71201 | 7.45810 | 33958 ft | 438 kts | 290° |
| 2026-04-29 11:12 | 41.73305 | 7.38237 | 33956 ft | 438 kts | 290° |
| 2026-04-29 11:12 | 41.75420 | 7.30600 | 33956 ft | 438 kts | 289° |
| 2026-04-29 11:13 | 41.77528 | 7.22972 | 33956 ft | 438 kts | 289° |
| 2026-04-29 11:13 | 41.79623 | 7.15365 | 33958 ft | 438 kts | 290° |
| 2026-04-29 11:14 | 41.81731 | 7.07687 | 33959 ft | 438 kts | 290° |
| 2026-04-29 11:14 | 41.83813 | 7.00077 | 33958 ft | 438 kts | 290° |
| 2026-04-29 11:15 | 41.85907 | 6.92403 | 33957 ft | 438 kts | 290° |
| 2026-04-29 11:15 | 41.87988 | 6.84750 | 33957 ft | 438 kts | 290° |
| 2026-04-29 11:16 | 41.90053 | 6.77132 | 33959 ft | 438 kts | 290° |
| 2026-04-29 11:16 | 41.92130 | 6.69446 | 33961 ft | 439 kts | 290° |
| 2026-04-29 11:17 | 41.94205 | 6.61749 | 33965 ft | 438 kts | 290° |
| 2026-04-29 11:17 | 41.96267 | 6.54077 | 33969 ft | 439 kts | 290° |
| 2026-04-29 11:18 | 41.98328 | 6.46381 | 33971 ft | 440 kts | 290° |
| 2026-04-29 11:18 | 42.00386 | 6.38672 | 33969 ft | 440 kts | 290° |
| 2026-04-29 11:19 | 42.02448 | 6.30926 | 33973 ft | 441 kts | 289° |
| 2026-04-29 11:19 | 42.04496 | 6.23204 | 33982 ft | 441 kts | 289° |
| 2026-04-29 11:20 | 42.06555 | 6.15414 | 33982 ft | 441 kts | 290° |
| 2026-04-29 11:20 | 42.08597 | 6.07666 | 33983 ft | 441 kts | 290° |
| 2026-04-29 11:21 | 42.10627 | 5.99945 | 33983 ft | 441 kts | 289° |
| 2026-04-29 11:21 | 42.12660 | 5.92189 | 33982 ft | 441 kts | 289° |
| 2026-04-29 11:22 | 42.14690 | 5.84409 | 33982 ft | 441 kts | 289° |
| 2026-04-29 11:22 | 42.16713 | 5.76638 | 33982 ft | 442 kts | 289° |
| 2026-04-29 11:23 | 42.18727 | 5.68864 | 33982 ft | 441 kts | 290° |
| 2026-04-29 11:23 | 42.20755 | 5.61021 | 33982 ft | 442 kts | 290° |
| 2026-04-29 11:24 | 42.22769 | 5.53209 | 33982 ft | 441 kts | 290° |
| 2026-04-29 11:24 | 42.24771 | 5.45421 | 33983 ft | 440 kts | 289° |
| 2026-04-29 11:25 | 42.26760 | 5.37658 | 33983 ft | 440 kts | 289° |
| 2026-04-29 11:25 | 42.28747 | 5.29878 | 33982 ft | 440 kts | 288° |
| 2026-04-29 11:26 | 42.31752 | 5.18044 | 33982 ft | 449 kts | 288° |
| 2026-04-29 11:26 | 42.33777 | 5.10041 | 33982 ft | 450 kts | 288° |
| 2026-04-29 11:27 | 42.35783 | 5.02089 | 33983 ft | 450 kts | 288° |
| 2026-04-29 11:27 | 42.37791 | 4.94098 | 33983 ft | 450 kts | 288° |
| 2026-04-29 11:28 | 42.39785 | 4.86136 | 33983 ft | 449 kts | 288° |
| 2026-04-29 11:28 | 42.41774 | 4.78174 | 33983 ft | 448 kts | 288° |
| 2026-04-29 11:29 | 42.43753 | 4.70215 | 33983 ft | 448 kts | 288° |
| 2026-04-29 11:29 | 42.45729 | 4.62237 | 33983 ft | 449 kts | 288° |
| 2026-04-29 11:30 | 42.47708 | 4.54232 | 33983 ft | 448 kts | 288° |
| 2026-04-29 11:30 | 42.49664 | 4.46297 | 33983 ft | 446 kts | 288° |
| 2026-04-29 11:31 | 42.51623 | 4.38315 | 33983 ft | 447 kts | 288° |
| 2026-04-29 11:31 | 42.53562 | 4.30385 | 33983 ft | 446 kts | 287° |
| 2026-04-29 11:32 | 42.55507 | 4.22403 | 33983 ft | 446 kts | 287° |
| 2026-04-29 11:32 | 42.57443 | 4.14434 | 33983 ft | 446 kts | 287° |
| 2026-04-29 11:33 | 42.59373 | 4.06457 | 33983 ft | 446 kts | 287° |
| 2026-04-29 11:33 | 42.61288 | 3.98514 | 33983 ft | 446 kts | 287° |
| 2026-04-29 11:34 | 42.63211 | 3.90508 | 33982 ft | 446 kts | 287° |
| 2026-04-29 11:34 | 42.65119 | 3.82550 | 33982 ft | 446 kts | 287° |
| 2026-04-29 11:35 | 42.67022 | 3.74577 | 33980 ft | 446 kts | 287° |
| 2026-04-29 11:35 | 42.68929 | 3.66557 | 33978 ft | 447 kts | 287° |
| 2026-04-29 11:36 | 42.70821 | 3.58577 | 33976 ft | 447 kts | 287° |
| 2026-04-29 11:36 | 42.72719 | 3.50538 | 33974 ft | 447 kts | 287° |
| 2026-04-29 11:37 | 42.74607 | 3.42515 | 33971 ft | 447 kts | 287° |
| 2026-04-29 11:37 | 42.76488 | 3.34494 | 33970 ft | 447 kts | 286° |
| 2026-04-29 11:38 | 42.78372 | 3.26432 | 33967 ft | 447 kts | 286° |
| 2026-04-29 11:38 | 42.80237 | 3.18416 | 33967 ft | 447 kts | 286° |
| 2026-04-29 11:39 | 42.82102 | 3.10371 | 33968 ft | 448 kts | 286° |
| 2026-04-29 11:39 | 42.83969 | 3.02296 | 33968 ft | 449 kts | 285° |
| 2026-04-29 11:40 | 42.85840 | 2.94175 | 33969 ft | 449 kts | 285° |
| 2026-04-29 11:40 | 42.87698 | 2.86074 | 33968 ft | 449 kts | 285° |
| 2026-04-29 11:41 | 42.89543 | 2.78000 | 33960 ft | 448 kts | 285° |
| 2026-04-29 11:41 | 42.91376 | 2.69960 | 33957 ft | 448 kts | 285° |
| 2026-04-29 11:42 | 42.93211 | 2.61875 | 33949 ft | 448 kts | 285° |
| 2026-04-29 11:42 | 42.95045 | 2.53761 | 33939 ft | 448 kts | 285° |
| 2026-04-29 11:43 | 42.96859 | 2.45701 | 33790 ft | 445 kts | 285° |
| 2026-04-29 11:43 | 42.97770 | 2.41642 | 32987 ft | 449 kts | 285° |
| 2026-04-29 11:43 | 42.98685 | 2.37552 | 31996 ft | 453 kts | 285° |
| 2026-04-29 11:44 | 42.99597 | 2.33475 | 31300 ft | 450 kts | 285° |
| 2026-04-29 11:44 | 43.00507 | 2.29407 | 30724 ft | 445 kts | 285° |
| 2026-04-29 11:44 | 43.01395 | 2.25427 | 30147 ft | 440 kts | 285° |
| 2026-04-29 11:44 | 43.02279 | 2.21456 | 29467 ft | 438 kts | 285° |
| 2026-04-29 11:45 | 43.03158 | 2.17499 | 28870 ft | 434 kts | 285° |
| 2026-04-29 11:45 | 43.04028 | 2.13575 | 28359 ft | 428 kts | 284° |
| 2026-04-29 11:45 | 43.04880 | 2.09728 | 27848 ft | 423 kts | 284° |
| 2026-04-29 11:45 | 43.05724 | 2.05909 | 27363 ft | 418 kts | 284° |
| 2026-04-29 11:46 | 43.06547 | 2.02177 | 26868 ft | 413 kts | 284° |
| 2026-04-29 11:46 | 43.07370 | 1.98438 | 26404 ft | 408 kts | 284° |
| 2026-04-29 11:46 | 43.08175 | 1.94773 | 25952 ft | 402 kts | 284° |
| 2026-04-29 11:46 | 43.08971 | 1.91138 | 25491 ft | 398 kts | 284° |
| 2026-04-29 11:47 | 43.09760 | 1.87529 | 25027 ft | 393 kts | 285° |
| 2026-04-29 11:47 | 43.10535 | 1.83980 | 24556 ft | 390 kts | 285° |
| 2026-04-29 11:47 | 43.11303 | 1.80466 | 24089 ft | 386 kts | 285° |
| 2026-04-29 11:47 | 43.12059 | 1.76968 | 23637 ft | 382 kts | 283° |
| 2026-04-29 11:48 | 43.12623 | 1.73502 | 23125 ft | 379 kts | 279° |
| 2026-04-29 11:48 | 43.13090 | 1.69942 | 22554 ft | 379 kts | 278° |
| 2026-04-29 11:48 | 43.13544 | 1.66384 | 21955 ft | 380 kts | 278° |
| 2026-04-29 11:48 | 43.14001 | 1.62868 | 21424 ft | 378 kts | 278° |
| 2026-04-29 11:49 | 43.14467 | 1.59345 | 20967 ft | 375 kts | 278° |
| 2026-04-29 11:49 | 43.14933 | 1.55868 | 20535 ft | 371 kts | 278° |
| 2026-04-29 11:49 | 43.15397 | 1.52411 | 20115 ft | 367 kts | 278° |
| 2026-04-29 11:49 | 43.15855 | 1.49015 | 19706 ft | 363 kts | 278° |
| 2026-04-29 11:50 | 43.16308 | 1.45647 | 19300 ft | 359 kts | 278° |
| 2026-04-29 11:50 | 43.16757 | 1.42313 | 18886 ft | 356 kts | 278° |
| 2026-04-29 11:50 | 43.17200 | 1.39015 | 18477 ft | 353 kts | 279° |
| 2026-04-29 11:50 | 43.17643 | 1.35722 | 18048 ft | 350 kts | 279° |
| 2026-04-29 11:51 | 43.18077 | 1.32485 | 17636 ft | 348 kts | 278° |
| 2026-04-29 11:51 | 43.18510 | 1.29245 | 17215 ft | 345 kts | 278° |
| 2026-04-29 11:51 | 43.18939 | 1.26040 | 16804 ft | 343 kts | 278° |
| 2026-04-29 11:51 | 43.19366 | 1.22839 | 16378 ft | 341 kts | 278° |
| 2026-04-29 11:52 | 43.19787 | 1.19664 | 15973 ft | 339 kts | 278° |
| 2026-04-29 11:52 | 43.20210 | 1.16481 | 15578 ft | 337 kts | 278° |
| 2026-04-29 11:52 | 43.20623 | 1.13361 | 15185 ft | 335 kts | 278° |
| 2026-04-29 11:52 | 43.21040 | 1.10218 | 14771 ft | 333 kts | 278° |
| 2026-04-29 11:53 | 43.21445 | 1.07144 | 14369 ft | 332 kts | 277° |
| 2026-04-29 11:53 | 43.21856 | 1.04022 | 13963 ft | 330 kts | 277° |
| 2026-04-29 11:53 | 43.22257 | 1.00981 | 13576 ft | 327 kts | 277° |
| 2026-04-29 11:53 | 43.22655 | 0.97927 | 13196 ft | 324 kts | 277° |
| 2026-04-29 11:54 | 43.23048 | 0.94908 | 12782 ft | 322 kts | 277° |
| 2026-04-29 11:54 | 43.23438 | 0.91904 | 12359 ft | 321 kts | 277° |
| 2026-04-29 11:54 | 43.23826 | 0.88909 | 11916 ft | 320 kts | 277° |
| 2026-04-29 11:54 | 43.24214 | 0.85916 | 11499 ft | 319 kts | 277° |
| 2026-04-29 11:55 | 43.24598 | 0.82948 | 11058 ft | 318 kts | 277° |
| 2026-04-29 11:55 | 43.24984 | 0.79969 | 10620 ft | 318 kts | 277° |
| 2026-04-29 11:55 | 43.25371 | 0.76964 | 10177 ft | 317 kts | 278° |
| 2026-04-29 11:55 | 43.25749 | 0.74034 | 9952 ft | 307 kts | 278° |
| 2026-04-29 11:56 | 43.26112 | 0.71231 | 9846 ft | 295 kts | 278° |
| 2026-04-29 11:56 | 43.26465 | 0.68473 | 9461 ft | 294 kts | 278° |
| 2026-04-29 11:56 | 43.26816 | 0.65723 | 9076 ft | 293 kts | 278° |
| 2026-04-29 11:56 | 43.27163 | 0.62994 | 8703 ft | 292 kts | 278° |
| 2026-04-29 11:57 | 43.27511 | 0.60263 | 8326 ft | 291 kts | 278° |
| 2026-04-29 11:57 | 43.27856 | 0.57554 | 7980 ft | 289 kts | 278° |
| 2026-04-29 11:57 | 43.28199 | 0.54844 | 7614 ft | 287 kts | 278° |
| 2026-04-29 11:57 | 43.28537 | 0.52172 | 7276 ft | 285 kts | 278° |
| 2026-04-29 11:58 | 43.28875 | 0.49494 | 6953 ft | 283 kts | 278° |
| 2026-04-29 11:58 | 43.29205 | 0.46885 | 6614 ft | 281 kts | 279° |
| 2026-04-29 11:58 | 43.29536 | 0.44259 | 6277 ft | 279 kts | 279° |
| 2026-04-29 11:58 | 43.29868 | 0.41616 | 5939 ft | 277 kts | 279° |
| 2026-04-29 11:59 | 43.30191 | 0.39039 | 5616 ft | 276 kts | 279° |
| 2026-04-29 11:59 | 43.30514 | 0.36460 | 5304 ft | 273 kts | 279° |
| 2026-04-29 11:59 | 43.30832 | 0.33906 | 4984 ft | 271 kts | 278° |
| 2026-04-29 11:59 | 43.31146 | 0.31382 | 4670 ft | 270 kts | 278° |
| 2026-04-29 12:00 | 43.31458 | 0.28869 | 4489 ft | 262 kts | 279° |
| 2026-04-29 12:00 | 43.31757 | 0.26458 | 4458 ft | 248 kts | 279° |
| 2026-04-29 12:00 | 43.32038 | 0.24189 | 4418 ft | 235 kts | 279° |
| 2026-04-29 12:00 | 43.32308 | 0.22021 | 4387 ft | 232 kts | 279° |
| 2026-04-29 12:01 | 43.32578 | 0.19855 | 4325 ft | 231 kts | 278° |
| 2026-04-29 12:01 | 43.32848 | 0.17677 | 4183 ft | 229 kts | 278° |
| 2026-04-29 12:01 | 43.33113 | 0.15527 | 4033 ft | 228 kts | 277° |
| 2026-04-29 12:01 | 43.33132 | 0.13361 | 3763 ft | 228 kts | 259° |
| 2026-04-29 12:02 | 43.32820 | 0.11244 | 3458 ft | 229 kts | 256° |
| 2026-04-29 12:02 | 43.32465 | 0.09118 | 3145 ft | 230 kts | 256° |
| 2026-04-29 12:02 | 43.32013 | 0.07065 | 2986 ft | 221 kts | 238° |
| 2026-04-29 12:02 | 43.30945 | 0.05679 | 2971 ft | 204 kts | 204° |
| 2026-04-29 12:03 | 43.29659 | 0.05075 | 3112 ft | 185 kts | 195° |
| 2026-04-29 12:03 | 43.28506 | 0.04654 | 3053 ft | 161 kts | 195° |
| 2026-04-29 12:03 | 43.27470 | 0.04218 | 2879 ft | 153 kts | 198° |
| 2026-04-29 12:03 | 43.26472 | 0.03734 | 2679 ft | 151 kts | 200° |
| 2026-04-29 12:04 | 43.25523 | 0.03249 | 2470 ft | 143 kts | 200° |
| 2026-04-29 12:04 | 43.24599 | 0.02782 | 2275 ft | 141 kts | 200° |
| 2026-04-29 12:04 | 43.23680 | 0.02313 | 2110 ft | 140 kts | 200° |
| 2026-04-29 12:04 | 43.22766 | 0.01845 | 1949 ft | 141 kts | 200° |
| 2026-04-29 12:05 | 43.21835 | 0.01380 | 1771 ft | 141 kts | 200° |
| 2026-04-29 12:05 | 43.20916 | 0.00920 | 1577 ft | 141 kts | 200° |
| 2026-04-29 12:05 | 43.20002 | 0.00449 | 1386 ft | 141 kts | 200° |
| 2026-04-29 12:05 | 43.19083 | -0.00017 | 1227 ft | 140 kts | 199° |
| 2026-04-29 12:06 | 43.18270 | -0.00428 | 1215 ft | 102 kts | 201° |
| 2026-04-29 12:06 | 43.17768 | -0.00681 | 1233 ft | 52 kts | 201° |
| 2026-04-29 12:06 | 43.17444 | -0.00845 | 1246 ft | 45 kts | 199° |
| 2026-04-29 12:06 | 43.17193 | -0.00972 | 1256 ft | 26 kts | 201° |
| 2026-04-29 12:07 | 43.17096 | -0.00953 | 1258 ft | 14 kts | 120° |
| 2026-04-29 12:07 | 43.17068 | -0.00812 | 1256 ft | 15 kts | 77° |
| 2026-04-29 12:07 | 43.17171 | -0.00725 | 1250 ft | 19 kts | 19° |
| 2026-04-29 12:07 | 43.17308 | -0.00656 | 1245 ft | 22 kts | 20° |
| 2026-04-29 12:08 | 43.17459 | -0.00579 | 1241 ft | 23 kts | 19° |
| 2026-04-29 12:08 | 43.17620 | -0.00492 | 1235 ft | 25 kts | 26° |
| 2026-04-29 12:08 | 43.17781 | -0.00373 | 1229 ft | 27 kts | 29° |
| 2026-04-29 12:08 | 43.17946 | -0.00246 | 1224 ft | 27 kts | 30° |
| 2026-04-29 12:09 | 43.18111 | -0.00120 | 1217 ft | 27 kts | 30° |
| 2026-04-29 12:09 | 43.18280 | 0.00011 | 1209 ft | 28 kts | 29° |
| 2026-04-29 12:09 | 43.18409 | 0.00110 | 1206 ft | 12 kts | 30° |
| 2026-04-29 12:09 | 43.18418 | 0.00211 | 1206 ft | 9 kts | 102° |
| 2026-04-29 12:10 | 43.18447 | 0.00279 | 1205 ft | 9 kts | 36° |
| 2026-04-29 12:10 | 43.18476 | 0.00307 | 1205 ft | 1 kts | 36° |
| 2026-04-29 12:10 | 43.18478 | 0.00308 | 1205 ft | 0 kts | 36° |